createdAt,value
2023-03-11T00:01:34.383Z,12.04
2023-03-11T00:05:39.058Z,11.85
2023-03-11T00:09:40.449Z,11.61
2023-03-11T00:13:41.796Z,11.46
2023-03-11T00:17:43.309Z,11.97
2023-03-11T00:21:44.636Z,12.05
2023-03-11T00:25:46.891Z,12.08
2023-03-11T00:29:48.223Z,11.65
2023-03-11T00:33:49.608Z,11.81
2023-03-11T00:37:55.101Z,11.42
2023-03-11T00:41:56.641Z,11.52
2023-03-11T00:45:57.986Z,11.27
2023-03-11T00:49:59.781Z,11.54
2023-03-11T00:54:01.343Z,11.83
2023-03-11T00:58:05.455Z,11.42
2023-03-11T01:02:06.765Z,11.62
2023-03-11T01:06:08.779Z,11.87
2023-03-11T01:10:11.156Z,11.75
2023-03-11T01:14:12.622Z,11.78
2023-03-11T01:18:14.201Z,11.84
2023-03-11T01:22:16.041Z,11.75
2023-03-11T01:26:17.428Z,12.16
2023-03-11T01:30:21.947Z,12.24
2023-03-11T01:34:23.265Z,12.04
2023-03-11T01:38:24.578Z,12.12
2023-03-11T01:42:25.878Z,12.26
2023-03-11T01:46:31.223Z,12.17
2023-03-11T01:50:36.905Z,12.44
2023-03-11T01:54:40.612Z,12.36
2023-03-11T01:58:46.251Z,12.14
2023-03-11T02:02:52.794Z,12.06
2023-03-11T02:06:56.153Z,11.94
2023-03-11T02:10:57.707Z,12.15
2023-03-11T02:15:00.456Z,12.21
2023-03-11T02:19:26.767Z,12.36
2023-03-11T02:23:36.536Z,12.09
2023-03-11T02:27:42.148Z,12.18
2023-03-11T02:31:44.210Z,12.27
2023-03-11T02:35:45.721Z,11.94
2023-03-11T02:39:51.080Z,12.06
2023-03-11T02:43:52.714Z,11.72
2023-03-11T02:47:56.425Z,11.85
2023-03-11T02:51:57.829Z,11.97
2023-03-11T02:55:59.264Z,11.88
2023-03-11T03:00:06.384Z,11.91
2023-03-11T03:04:07.809Z,11.96
2023-03-11T03:08:09.265Z,11.32
2023-03-11T03:12:10.659Z,11.68
2023-03-11T03:16:12.519Z,11.67
2023-03-11T03:20:14.751Z,11.15
2023-03-11T03:24:16.278Z,11.47
2023-03-11T03:28:17.661Z,11.31
2023-03-11T03:32:19.011Z,11.33
2023-03-11T03:36:20.373Z,11.33
2023-03-11T03:40:21.903Z,11.31
2023-03-11T03:44:23.228Z,11.27
2023-03-11T03:48:24.754Z,10.93
2023-03-11T03:52:26.113Z,10.96
2023-03-11T03:56:27.393Z,10.88
2023-03-11T04:00:28.735Z,10.87
2023-03-11T04:04:30.658Z,10.73
2023-03-11T04:08:31.989Z,10.80
2023-03-11T04:12:33.318Z,10.79
2023-03-11T04:16:34.764Z,10.74
2023-03-11T04:20:38.678Z,10.85
2023-03-11T04:24:40.026Z,10.84
2023-03-11T04:28:41.832Z,10.62
2023-03-11T04:32:43.436Z,10.88
2023-03-11T04:36:44.834Z,10.79
2023-03-11T04:40:46.217Z,10.65
2023-03-11T04:44:47.642Z,10.71
2023-03-11T04:48:49.087Z,10.67
2023-03-11T04:52:50.491Z,10.56
2023-03-11T04:56:51.852Z,10.52
2023-03-11T05:00:53.326Z,10.52
2023-03-11T05:04:54.759Z,10.65
2023-03-11T05:08:56.152Z,10.42
2023-03-11T05:12:57.427Z,10.67
2023-03-11T05:16:58.872Z,10.51
2023-03-11T05:21:00.237Z,10.71
2023-03-11T05:25:01.643Z,10.55
2023-03-11T05:29:02.958Z,10.75
2023-03-11T05:33:04.374Z,10.68
2023-03-11T05:37:05.938Z,10.77
2023-03-11T05:41:07.366Z,10.81
2023-03-11T05:45:09.921Z,10.87
2023-03-11T05:49:11.318Z,10.96
2023-03-11T05:53:12.737Z,10.93
2023-03-11T05:57:14.098Z,10.95
2023-03-11T06:01:17.567Z,10.86
2023-03-11T06:05:19.111Z,11.09
2023-03-11T06:09:20.536Z,11.03
2023-03-11T06:13:21.899Z,11.14
2023-03-11T06:17:23.314Z,11.13
2023-03-11T06:21:26.633Z,11.04
2023-03-11T06:25:28.011Z,11.16
2023-03-11T06:29:29.950Z,11.25
2023-03-11T06:33:31.251Z,11.62
2023-03-11T06:37:36.905Z,11.68
2023-03-11T06:41:38.190Z,11.85
2023-03-11T06:45:39.525Z,11.83
2023-03-11T06:49:42.576Z,11.78
2023-03-11T06:53:47.904Z,11.95
2023-03-11T06:57:49.312Z,11.93
2023-03-11T07:01:50.660Z,11.99
2023-03-11T07:05:52.128Z,11.87
2023-03-11T07:09:55.919Z,12.15
2023-03-11T07:13:57.289Z,12.14
2023-03-11T07:17:58.832Z,12.41
2023-03-11T07:22:00.346Z,12.55
2023-03-11T07:26:02.015Z,12.84
2023-03-11T07:30:03.653Z,12.77
2023-03-11T07:34:11.157Z,12.83
2023-03-11T07:38:12.577Z,12.91
2023-03-11T07:42:13.876Z,13.17
2023-03-11T07:46:18.450Z,13.36
2023-03-11T07:50:22.186Z,13.60
2023-03-11T07:54:23.620Z,14.97
2023-03-11T07:58:25.786Z,15.72
2023-03-11T08:02:27.304Z,16.42
2023-03-11T08:06:31.307Z,17.25
2023-03-11T08:10:32.730Z,17.13
2023-03-11T08:14:34.077Z,17.01
2023-03-11T08:18:35.450Z,17.64
2023-03-11T08:22:38.105Z,17.63
2023-03-11T08:26:42.814Z,18.18
2023-03-11T08:30:44.132Z,18.50
2023-03-11T08:34:45.596Z,18.35
2023-03-11T08:38:47.261Z,18.57
2023-03-11T08:42:49.245Z,18.87
2023-03-11T08:46:50.717Z,19.50
2023-03-11T08:50:54.633Z,19.76
2023-03-11T08:54:57.255Z,20.34
2023-03-11T08:58:58.711Z,21.52
2023-03-11T09:03:00.241Z,21.86
2023-03-11T09:07:01.629Z,22.14
2023-03-11T09:11:03.257Z,22.06
2023-03-11T09:15:05.789Z,22.61
2023-03-11T09:19:07.561Z,24.49
2023-03-11T09:23:11.120Z,24.06
2023-03-11T09:27:13.110Z,23.29
2023-03-11T09:31:15.781Z,20.35
2023-03-11T09:35:17.235Z,20.40
2023-03-11T09:39:18.760Z,14.20
2023-03-11T09:43:39.881Z,15.24
2023-03-11T09:48:07.832Z,18.03
2023-03-11T09:52:15.064Z,15.04
2023-03-11T09:56:22.230Z,13.51
2023-03-11T10:00:24.892Z,13.84
2023-03-11T10:04:34.113Z,19.48
2023-03-11T10:08:44.067Z,21.70
2023-03-11T10:13:28.631Z,17.24
2023-03-11T10:17:39.355Z,21.17
2023-03-11T10:21:58.327Z,19.58
2023-03-11T10:26:21.693Z,20.65
2023-03-11T10:30:33.729Z,24.39
2023-03-11T10:34:50.604Z,24.14
2023-03-11T10:38:53.882Z,24.36
2023-03-11T10:42:58.149Z,24.27
2023-03-11T10:46:59.685Z,24.43
2023-03-11T10:51:16.139Z,21.76
2023-03-11T10:55:19.908Z,21.36
2023-03-11T10:59:32.085Z,21.71
2023-03-11T11:03:34.688Z,20.44
2023-03-11T11:07:41.061Z,22.30
2023-03-11T11:12:00.344Z,17.14
2023-03-11T11:16:05.352Z,18.92
2023-03-11T11:20:17.972Z,19.41
2023-03-11T11:24:27.494Z,20.27
2023-03-11T11:28:28.999Z,20.30
2023-03-11T11:32:30.348Z,19.41
2023-03-11T11:36:35.729Z,19.27
2023-03-11T11:40:37.494Z,19.38
2023-03-11T11:44:40.161Z,18.20
2023-03-11T11:49:10.427Z,17.56
2023-03-11T11:53:24.970Z,16.94
2023-03-11T11:57:26.435Z,18.50
2023-03-11T12:01:48.886Z,18.07
2023-03-11T12:05:58.968Z,18.34
2023-03-11T12:10:24.306Z,17.65
2023-03-11T12:14:34.942Z,18.83
2023-03-11T12:18:50.172Z,19.23
2023-03-11T12:23:28.953Z,18.59
2023-03-11T12:27:36.082Z,18.67
2023-03-11T12:31:40.691Z,18.55
2023-03-11T12:35:49.747Z,17.60
2023-03-11T12:39:51.137Z,17.60
2023-03-11T12:43:52.393Z,16.62
2023-03-11T12:48:27.718Z,18.01
2023-03-11T12:52:30.032Z,17.99
2023-03-11T12:56:54.205Z,18.09
2023-03-11T13:01:23.191Z,18.15
2023-03-11T13:05:33.170Z,17.73
2023-03-11T13:09:34.902Z,18.49
2023-03-11T13:13:40.552Z,17.48
2023-03-11T13:17:42.000Z,17.48
2023-03-11T13:21:43.396Z,18.12
2023-03-11T13:26:10.773Z,18.41
2023-03-11T13:30:22.236Z,18.30
2023-03-11T13:34:40.412Z,18.12
2023-03-11T13:38:57.406Z,17.98
2023-03-11T13:43:05.483Z,17.43
2023-03-11T13:47:18.472Z,16.73
2023-03-11T13:51:32.228Z,17.11
2023-03-11T13:55:43.049Z,16.59
2023-03-11T13:59:44.353Z,17.11
2023-03-11T14:03:47.473Z,15.98
2023-03-11T14:07:48.877Z,15.95
2023-03-11T14:11:53.208Z,16.25
2023-03-11T14:16:00.389Z,16.15
2023-03-11T14:20:06.982Z,15.88
2023-03-11T14:24:17.073Z,15.74
2023-03-11T14:28:20.334Z,15.70
2023-03-11T14:32:31.244Z,15.86
2023-03-11T14:36:44.801Z,16.05
2023-03-11T14:40:55.312Z,15.66
2023-03-11T14:45:17.849Z,15.89
2023-03-11T14:49:23.079Z,15.67
2023-03-11T14:53:30.198Z,15.76
2023-03-11T14:57:39.564Z,15.86
2023-03-11T15:01:43.920Z,16.02
2023-03-11T15:06:06.925Z,16.06
2023-03-11T15:10:11.880Z,16.24
2023-03-11T15:14:25.068Z,16.40
2023-03-11T15:18:39.036Z,15.60
2023-03-11T15:22:40.964Z,16.37
2023-03-11T15:26:52.083Z,16.45
2023-03-11T15:31:33.548Z,16.27
2023-03-11T15:35:46.338Z,16.30
2023-03-11T15:39:52.066Z,16.39
2023-03-11T15:43:54.735Z,16.36
2023-03-11T15:47:56.066Z,16.24
2023-03-11T15:52:01.268Z,16.12
2023-03-11T15:56:11.282Z,16.21
2023-03-11T16:00:22.474Z,16.30
2023-03-11T16:04:24.005Z,15.66
2023-03-11T16:08:25.671Z,15.63
2023-03-11T16:12:27.015Z,15.84
2023-03-11T16:16:28.483Z,15.92
2023-03-11T16:20:36.694Z,15.86
2023-03-11T16:24:38.004Z,15.72
2023-03-11T16:28:40.243Z,15.55
2023-03-11T16:32:42.653Z,15.63
2023-03-11T16:36:44.091Z,14.92
2023-03-11T16:40:45.370Z,15.16
2023-03-11T16:44:46.703Z,15.44
2023-03-11T16:48:48.094Z,15.41
2023-03-11T16:52:49.937Z,15.48
2023-03-11T16:56:51.262Z,15.35
2023-03-11T17:00:52.626Z,15.49
2023-03-11T17:04:54.034Z,15.41
2023-03-11T17:08:55.410Z,15.28
2023-03-11T17:12:56.901Z,15.09
2023-03-11T17:16:58.829Z,15.15
2023-03-11T17:21:02.111Z,15.05
2023-03-11T17:25:03.971Z,14.75
2023-03-11T17:29:05.659Z,14.83
2023-03-11T17:33:07.027Z,14.71
2023-03-11T17:37:08.936Z,14.65
2023-03-11T17:41:17.243Z,14.68
2023-03-11T17:45:18.622Z,14.50
2023-03-11T17:49:20.032Z,14.46
2023-03-11T17:53:21.335Z,14.37
2023-03-11T17:57:25.021Z,14.33
2023-03-11T18:01:27.964Z,14.36
2023-03-11T18:05:29.321Z,14.40
2023-03-11T18:09:30.749Z,14.31
2023-03-11T18:13:33.361Z,14.24
2023-03-11T18:17:35.358Z,14.14
2023-03-11T18:21:36.825Z,14.25
2023-03-11T18:25:38.133Z,14.30
2023-03-11T18:29:39.573Z,14.31
2023-03-11T18:33:42.819Z,14.19
2023-03-11T18:37:44.133Z,14.12
2023-03-11T18:41:45.464Z,13.83
2023-03-11T18:45:46.847Z,14.07
2023-03-11T18:49:48.265Z,14.22
2023-03-11T18:53:49.580Z,14.01
2023-03-11T18:57:53.179Z,13.96
2023-03-11T19:01:54.970Z,14.17
2023-03-11T19:05:56.396Z,14.17
2023-03-11T19:09:57.876Z,14.09
2023-03-11T19:13:59.917Z,13.98
2023-03-11T19:18:06.985Z,14.01
2023-03-11T19:22:08.708Z,14.13
2023-03-11T19:26:10.124Z,14.01
2023-03-11T19:30:12.270Z,13.96
2023-03-11T19:34:13.648Z,13.94
2023-03-11T19:38:14.992Z,14.05
2023-03-11T19:42:16.345Z,13.98
2023-03-11T19:46:20.464Z,14.12
2023-03-11T19:50:22.564Z,14.06
2023-03-11T19:54:24.009Z,14.03
2023-03-11T19:58:30.231Z,13.83
2023-03-11T20:02:32.221Z,13.99
2023-03-11T20:06:34.031Z,13.97
2023-03-11T20:10:40.544Z,13.93
2023-03-11T20:14:42.855Z,13.99
2023-03-11T20:18:44.516Z,13.87
2023-03-11T20:22:45.876Z,13.94
2023-03-11T20:26:48.840Z,13.62
2023-03-11T20:30:52.061Z,13.94
2023-03-11T20:34:53.473Z,13.86
2023-03-11T20:38:56.128Z,13.55
2023-03-11T20:42:57.605Z,13.45
2023-03-11T20:46:59.240Z,13.62
2023-03-11T20:51:13.705Z,13.51
2023-03-11T20:55:15.209Z,13.17
2023-03-11T20:59:16.898Z,13.26
2023-03-11T21:03:18.467Z,13.15
2023-03-11T21:07:19.870Z,12.59
2023-03-11T21:11:22.138Z,13.05
2023-03-11T21:15:23.551Z,13.03
2023-03-11T21:19:25.008Z,13.19
2023-03-11T21:23:26.492Z,13.32
2023-03-11T21:27:28.044Z,13.13
2023-03-11T21:31:30.009Z,13.07
2023-03-11T21:35:34.335Z,13.05
2023-03-11T21:39:35.826Z,13.02
2023-03-11T21:43:38.953Z,13.09
2023-03-11T21:47:40.524Z,12.85
2023-03-11T21:51:41.868Z,13.07
2023-03-11T21:55:43.531Z,12.90
2023-03-11T21:59:45.004Z,12.92
2023-03-11T22:03:47.946Z,12.92
2023-03-11T22:07:49.564Z,12.79
2023-03-11T22:11:51.158Z,12.87
2023-03-11T22:15:52.827Z,12.81
2023-03-11T22:19:54.393Z,12.64
2023-03-11T22:23:55.785Z,12.84
2023-03-11T22:27:57.166Z,12.39
2023-03-11T22:31:58.602Z,12.82
2023-03-11T22:36:02.031Z,12.37
2023-03-11T22:40:07.493Z,12.57
2023-03-11T22:44:08.858Z,12.81
2023-03-11T22:48:10.229Z,12.51
2023-03-11T22:52:11.606Z,12.85
2023-03-11T22:56:14.985Z,12.04
2023-03-11T23:00:20.822Z,12.42
2023-03-11T23:04:22.276Z,12.77
2023-03-11T23:08:23.761Z,12.66
2023-03-11T23:12:25.233Z,12.30
2023-03-11T23:16:26.648Z,12.57
2023-03-11T23:20:28.245Z,12.61
2023-03-11T23:24:29.716Z,12.87
2023-03-11T23:28:31.150Z,12.87
2023-03-11T23:32:32.799Z,13.13
2023-03-11T23:36:34.373Z,12.99
2023-03-11T23:40:35.750Z,12.84
2023-03-11T23:44:37.129Z,12.74
2023-03-11T23:48:38.802Z,12.60
2023-03-11T23:52:40.143Z,12.64
2023-03-11T23:56:43.544Z,12.22
